createdAt,value
2018-02-11T00:00:50.608Z,-0.30
2018-02-11T00:03:18.881Z,-0.50
2018-02-11T00:05:47.915Z,-0.60
2018-02-11T00:08:16.175Z,-0.50
2018-02-11T00:10:44.461Z,-0.60
2018-02-11T00:13:13.500Z,-0.40
2018-02-11T00:15:41.777Z,-0.50
2018-02-11T00:18:10.813Z,-0.70
2018-02-11T00:20:39.088Z,-0.60
2018-02-11T00:23:11.174Z,-0.60
2018-02-11T00:25:39.457Z,-0.70
2018-02-11T00:28:07.716Z,-0.70
2018-02-11T00:30:36.004Z,-0.60
2018-02-11T00:33:04.272Z,-0.60
2018-02-11T00:35:33.317Z,-0.40
2018-02-11T00:38:06.998Z,-0.60
2018-02-11T00:40:36.045Z,-0.60
2018-02-11T00:43:04.315Z,-0.60
2018-02-11T00:45:32.605Z,-0.50
2018-02-11T00:48:00.885Z,-0.60
2018-02-11T00:50:29.162Z,-0.60
2018-02-11T00:52:58.205Z,-0.60
2018-02-11T00:55:27.265Z,-0.50
2018-02-11T00:57:56.304Z,-0.60
2018-02-11T01:00:24.571Z,-0.60
2018-02-11T01:02:53.611Z,-0.60
2018-02-11T01:05:21.889Z,-0.50
2018-02-11T01:07:50.443Z,-0.60
2018-02-11T01:10:19.490Z,-0.60
2018-02-11T01:12:47.755Z,-0.60
2018-02-11T01:15:16.796Z,-0.60
2018-02-11T01:17:45.078Z,-0.60
2018-02-11T01:20:13.336Z,-0.60
2018-02-11T01:22:42.379Z,-0.50
2018-02-11T01:25:10.656Z,-0.30
2018-02-11T01:27:38.937Z,-0.60
2018-02-11T01:30:07.215Z,-0.50
2018-02-11T01:32:35.491Z,-0.40
2018-02-11T01:35:04.532Z,-0.40
2018-02-11T01:37:32.825Z,-0.50
2018-02-11T01:40:01.102Z,-0.60
2018-02-11T01:42:29.380Z,-0.60
2018-02-11T01:44:57.661Z,-0.60
2018-02-11T01:47:26.707Z,-0.60
2018-02-11T01:50:12.700Z,-0.50
2018-02-11T01:52:40.989Z,-0.60
2018-02-11T01:55:09.264Z,-0.60
2018-02-11T01:57:37.531Z,-0.60
2018-02-11T02:00:06.583Z,-0.60
2018-02-11T02:02:34.873Z,-0.40
2018-02-11T02:05:03.148Z,-0.70
2018-02-11T02:07:31.411Z,-0.70
2018-02-11T02:09:59.692Z,-0.40
2018-02-11T02:12:28.732Z,-0.50
2018-02-11T02:14:57.001Z,-0.70
2018-02-11T02:17:25.294Z,-0.60
2018-02-11T02:19:53.563Z,-0.50
2018-02-11T02:22:22.605Z,-0.60
2018-02-11T02:24:50.874Z,-0.50
2018-02-11T02:27:19.145Z,-0.60
2018-02-11T02:29:48.182Z,-0.80
2018-02-11T02:32:16.448Z,-0.60
2018-02-11T02:34:44.715Z,-0.80
2018-02-11T02:37:13.754Z,-0.70
2018-02-11T02:39:42.032Z,-0.70
2018-02-11T02:42:10.309Z,-0.80
2018-02-11T02:44:39.340Z,-0.90
2018-02-11T02:47:07.625Z,-0.80
2018-02-11T02:49:35.923Z,-0.60
2018-02-11T02:52:04.209Z,-0.80
2018-02-11T02:54:32.485Z,-1.00
2018-02-11T02:57:00.891Z,-0.80
2018-02-11T02:59:29.156Z,-1.10
2018-02-11T03:01:58.192Z,-0.80
2018-02-11T03:04:26.464Z,-1.20
2018-02-11T03:06:54.735Z,-1.10
2018-02-11T03:09:23.773Z,-1.20
2018-02-11T03:11:52.050Z,-1.00
2018-02-11T03:14:20.330Z,-1.20
2018-02-11T03:16:48.614Z,-1.10
2018-02-11T03:19:16.880Z,-1.30
2018-02-11T03:21:45.918Z,-1.30
2018-02-11T03:24:14.196Z,-1.20
2018-02-11T03:26:42.480Z,-1.20
2018-02-11T03:29:11.507Z,-1.10
2018-02-11T03:31:39.792Z,-1.20
2018-02-11T03:34:08.051Z,-1.30
2018-02-11T03:36:37.093Z,-1.40
2018-02-11T03:39:05.384Z,-1.20
2018-02-11T03:41:33.663Z,-1.40
2018-02-11T03:44:01.927Z,-1.40
2018-02-11T03:46:30.204Z,-1.50
2018-02-11T03:48:58.468Z,-1.40
2018-02-11T03:51:26.743Z,-1.30
2018-02-11T03:53:55.013Z,-1.50
2018-02-11T03:56:23.291Z,-1.10
2018-02-11T03:58:51.573Z,-1.40
2018-02-11T04:01:19.848Z,-1.50
2018-02-11T04:03:48.880Z,-1.50
2018-02-11T04:06:17.165Z,-1.40
2018-02-11T04:08:45.430Z,-1.50
2018-02-11T04:11:14.458Z,-1.60
2018-02-11T04:13:42.723Z,-1.60
2018-02-11T04:16:11.757Z,-1.60
2018-02-11T04:18:40.032Z,-1.60
2018-02-11T04:21:08.304Z,-1.70
2018-02-11T04:23:37.344Z,-1.40
2018-02-11T04:26:05.603Z,-1.30
2018-02-11T04:28:34.668Z,-1.50
2018-02-11T04:31:02.937Z,-1.40
2018-02-11T04:33:31.279Z,-1.60
2018-02-11T04:35:59.506Z,-1.60
2018-02-11T04:38:27.776Z,-1.30
2018-02-11T04:40:56.053Z,-1.30
2018-02-11T04:43:25.096Z,-1.50
2018-02-11T04:45:53.405Z,-1.50
2018-02-11T04:48:21.672Z,-1.30
2018-02-11T04:50:49.951Z,-1.40
2018-02-11T04:53:18.219Z,-1.40
2018-02-11T04:55:46.492Z,-1.50
2018-02-11T04:58:15.527Z,-1.50
2018-02-11T05:00:43.787Z,-1.20
2018-02-11T05:03:12.827Z,-1.40
2018-02-11T05:05:41.097Z,-1.20
2018-02-11T05:08:09.368Z,-1.50
2018-02-11T05:10:38.401Z,-1.30
2018-02-11T05:13:06.690Z,-1.30
2018-02-11T05:15:34.958Z,-1.50
2018-02-11T05:18:03.993Z,-1.40
2018-02-11T05:20:32.960Z,-1.20
2018-02-11T05:23:02.014Z,-1.20
2018-02-11T05:25:30.277Z,-1.40
2018-02-11T05:27:58.543Z,-1.40
2018-02-11T05:30:27.581Z,-1.40
2018-02-11T05:32:55.842Z,-1.50
2018-02-11T05:35:24.877Z,-1.50
2018-02-11T05:37:53.148Z,-1.30
2018-02-11T05:40:22.177Z,-1.30
2018-02-11T05:42:50.457Z,-1.30
2018-02-11T05:45:18.725Z,-1.40
2018-02-11T05:47:47.762Z,-1.10
2018-02-11T05:50:16.031Z,-1.20
2018-02-11T05:52:44.309Z,-1.30
2018-02-11T05:55:13.334Z,-1.30
2018-02-11T05:57:41.595Z,-1.30
2018-02-11T06:00:10.623Z,-1.40
2018-02-11T06:02:38.887Z,-1.50
2018-02-11T06:05:07.160Z,-1.40
2018-02-11T06:07:35.428Z,-1.50
2018-02-11T06:10:03.692Z,-1.10
2018-02-11T06:12:32.740Z,-1.00
2018-02-11T06:15:01.013Z,-1.30
2018-02-11T06:17:29.287Z,-1.30
2018-02-11T06:19:57.549Z,-1.20
2018-02-11T06:22:25.819Z,-1.10
2018-02-11T06:24:54.854Z,-0.90
2018-02-11T06:27:23.111Z,-0.90
2018-02-11T06:29:52.140Z,-1.10
2018-02-11T06:32:20.410Z,-0.90
2018-02-11T06:34:48.680Z,-1.20
2018-02-11T06:37:17.807Z,-1.10
2018-02-11T06:39:46.066Z,-0.90
2018-02-11T06:42:14.341Z,-1.10
2018-02-11T06:44:42.605Z,-0.90
2018-02-11T06:47:10.869Z,-1.20
2018-02-11T06:49:39.123Z,-0.90
2018-02-11T06:52:07.396Z,-1.10
2018-02-11T06:54:35.666Z,-1.20
2018-02-11T06:57:04.016Z,-1.20
2018-02-11T06:59:32.292Z,-1.10
2018-02-11T07:02:01.321Z,-1.10
2018-02-11T07:04:29.587Z,-0.90
2018-02-11T07:06:58.607Z,-0.80
2018-02-11T07:09:26.992Z,-1.10
2018-02-11T07:11:56.023Z,-1.00
2018-02-11T07:14:24.288Z,-0.70
2018-02-11T07:16:52.561Z,-0.80
2018-02-11T07:19:21.601Z,-0.70
2018-02-11T07:21:49.855Z,-0.80
2018-02-11T07:24:18.892Z,-0.80
2018-02-11T07:26:47.156Z,-0.90
2018-02-11T07:29:16.186Z,-0.80
2018-02-11T07:31:44.444Z,-1.00
2018-02-11T07:34:13.480Z,-0.70
2018-02-11T07:36:41.748Z,-0.80
2018-02-11T07:39:10.783Z,-0.70
2018-02-11T07:41:39.037Z,-0.80
2018-02-11T07:44:08.077Z,-1.00
2018-02-11T07:46:36.349Z,-0.70
2018-02-11T07:49:04.619Z,-0.80
2018-02-11T07:51:33.656Z,-1.00
2018-02-11T07:54:01.918Z,-0.70
2018-02-11T07:56:30.943Z,-0.70
2018-02-11T07:58:59.209Z,-0.80
2018-02-11T08:01:28.236Z,-0.90
2018-02-11T08:03:56.508Z,-0.80
2018-02-11T08:06:25.553Z,-0.90
2018-02-11T08:08:53.819Z,-0.80
2018-02-11T08:11:22.080Z,-0.90
2018-02-11T08:13:50.382Z,-0.70
2018-02-11T08:16:19.404Z,-0.90
2018-02-11T08:18:47.684Z,-0.80
2018-02-11T08:21:15.937Z,-0.90
2018-02-11T08:23:44.199Z,-0.90
2018-02-11T08:26:12.464Z,-0.90
2018-02-11T08:28:40.734Z,-1.00
2018-02-11T08:31:08.991Z,-0.90
2018-02-11T08:33:37.272Z,-0.70
2018-02-11T08:36:05.532Z,-0.60
2018-02-11T08:38:33.799Z,-0.80
2018-02-11T08:41:02.065Z,-0.80
2018-02-11T08:43:31.136Z,-0.70
2018-02-11T08:45:59.396Z,-0.70
2018-02-11T08:48:27.672Z,-0.80
2018-02-11T08:50:55.944Z,-0.90
2018-02-11T08:53:24.213Z,-1.00
2018-02-11T08:55:53.236Z,-0.90
2018-02-11T08:58:21.507Z,-0.70
2018-02-11T09:00:50.524Z,-0.90
2018-02-11T09:03:19.574Z,-0.90
2018-02-11T09:05:47.840Z,-0.80
2018-02-11T09:08:16.117Z,-0.70
2018-02-11T09:10:44.371Z,-0.80
2018-02-11T09:13:12.643Z,-0.80
2018-02-11T09:15:40.912Z,-0.90
2018-02-11T09:18:09.172Z,-0.70
2018-02-11T09:20:38.382Z,-0.70
2018-02-11T09:23:06.654Z,-0.80
2018-02-11T09:25:35.691Z,-0.90
2018-02-11T09:28:04.741Z,-0.80
2018-02-11T09:30:33.074Z,-0.60
2018-02-11T09:33:03.312Z,-0.70
2018-02-11T09:35:32.503Z,-0.90
2018-02-11T09:38:01.550Z,-0.80
2018-02-11T09:40:29.813Z,-0.70
2018-02-11T09:42:58.089Z,-0.90
2018-02-11T09:45:27.116Z,-0.80
2018-02-11T09:47:55.396Z,-0.70
2018-02-11T09:50:23.673Z,-0.60
2018-02-11T09:52:52.707Z,-0.90
2018-02-11T09:55:20.979Z,-0.70
2018-02-11T09:57:49.242Z,-0.80
2018-02-11T10:00:18.284Z,-0.90
2018-02-11T10:02:46.547Z,-0.80
2018-02-11T10:05:15.589Z,-0.90
2018-02-11T10:07:43.854Z,-0.70
2018-02-11T10:10:12.147Z,-0.60
2018-02-11T10:12:41.163Z,-0.70
2018-02-11T10:15:09.440Z,-0.70
2018-02-11T10:17:37.704Z,-0.50
2018-02-11T10:20:06.739Z,-0.70
2018-02-11T10:22:35.017Z,-0.50
2018-02-11T10:25:03.383Z,-0.60
2018-02-11T10:27:32.432Z,-0.60
2018-02-11T10:30:00.696Z,-0.40
2018-02-11T10:32:28.960Z,-0.40
2018-02-11T10:34:57.231Z,-0.50
2018-02-11T10:37:25.487Z,-0.40
2018-02-11T10:39:53.761Z,-0.30
2018-02-11T10:42:22.024Z,-0.30
2018-02-11T10:44:51.059Z,-0.20
2018-02-11T10:47:19.324Z,-0.30
2018-02-11T10:49:48.360Z,-0.40
2018-02-11T10:52:16.633Z,-0.40
2018-02-11T10:54:44.906Z,-0.30
2018-02-11T10:57:13.931Z,-0.10
2018-02-11T10:59:42.208Z,-0.40
2018-02-11T11:02:10.477Z,-0.30
2018-02-11T11:04:39.519Z,-0.30
2018-02-11T11:07:07.788Z,-0.20
2018-02-11T11:09:36.055Z,-0.40
2018-02-11T11:12:05.123Z,-0.20
2018-02-11T11:14:34.300Z,-0.40
2018-02-11T11:17:03.496Z,-0.30
2018-02-11T11:19:32.535Z,-0.30
2018-02-11T11:22:00.805Z,-0.30
2018-02-11T11:24:29.088Z,-0.30
2018-02-11T11:26:57.371Z,-0.30
2018-02-11T11:29:26.417Z,-0.20
2018-02-11T11:31:54.690Z,-0.20
2018-02-11T11:34:22.968Z,-0.30
2018-02-11T11:36:51.236Z,-0.30
2018-02-11T11:39:20.272Z,-0.20
2018-02-11T11:41:48.551Z,-0.20
2018-02-11T11:44:16.810Z,-0.10
2018-02-11T11:46:45.861Z,0.00
2018-02-11T11:49:14.133Z,0.00
2018-02-11T11:51:42.402Z,-0.10
2018-02-11T11:54:11.458Z,-0.10
2018-02-11T11:56:39.708Z,0.20
2018-02-11T11:59:07.981Z,-0.10
2018-02-11T12:01:37.019Z,-0.20
2018-02-11T12:04:05.283Z,-0.20
2018-02-11T12:06:34.332Z,-0.10
2018-02-11T12:09:02.614Z,0.20
2018-02-11T12:11:30.879Z,-0.10
2018-02-11T12:13:59.149Z,-0.10
2018-02-11T12:16:28.179Z,0.10
2018-02-11T12:18:56.441Z,0.20
2018-02-11T12:21:25.476Z,0.00
2018-02-11T12:23:53.748Z,-0.10
2018-02-11T12:26:22.028Z,-0.10
2018-02-11T12:28:51.255Z,-0.10
2018-02-11T12:31:19.530Z,0.10
2018-02-11T12:33:48.656Z,0.00
2018-02-11T12:36:16.949Z,-0.10
2018-02-11T12:38:45.220Z,0.10
2018-02-11T12:41:13.497Z,0.00
2018-02-11T12:43:43.436Z,0.10
2018-02-11T12:46:11.709Z,0.30
2018-02-11T12:48:40.736Z,0.30
2018-02-11T12:51:09.014Z,0.20
2018-02-11T12:53:37.277Z,0.30
2018-02-11T12:56:05.578Z,0.30
2018-02-11T12:58:33.813Z,0.20
2018-02-11T13:01:02.076Z,0.70
2018-02-11T13:03:30.355Z,0.30
2018-02-11T13:05:59.847Z,0.30
2018-02-11T13:08:28.120Z,0.20
2018-02-11T13:10:56.385Z,0.40
2018-02-11T13:13:25.184Z,0.30
2018-02-11T13:15:53.463Z,0.30
2018-02-11T13:18:21.711Z,0.30
2018-02-11T13:20:50.756Z,0.40
2018-02-11T13:23:19.019Z,0.50
2018-02-11T13:25:47.333Z,0.40
2018-02-11T13:28:15.591Z,0.40
2018-02-11T13:30:44.634Z,0.50
2018-02-11T13:33:12.905Z,0.50
2018-02-11T13:35:41.171Z,0.60
2018-02-11T13:38:10.201Z,0.60
2018-02-11T13:40:38.483Z,0.70
2018-02-11T13:43:06.735Z,0.60
2018-02-11T13:45:35.003Z,0.70
2018-02-11T13:48:03.271Z,0.60
2018-02-11T13:50:31.557Z,0.70
2018-02-11T13:52:59.832Z,0.60
2018-02-11T13:55:28.113Z,0.70
2018-02-11T13:57:56.404Z,0.60
2018-02-11T14:00:24.701Z,0.70
2018-02-11T14:02:52.952Z,0.60
2018-02-11T14:05:21.260Z,0.60
2018-02-11T14:07:49.524Z,0.60
2018-02-11T14:10:17.787Z,0.80
2018-02-11T14:12:46.068Z,0.70
2018-02-11T14:15:14.332Z,0.70
2018-02-11T14:17:43.008Z,1.10
2018-02-11T14:20:11.290Z,0.80
2018-02-11T14:22:40.321Z,0.60
2018-02-11T14:25:08.593Z,0.80
2018-02-11T14:27:37.612Z,0.80
2018-02-11T14:30:05.879Z,0.60
2018-02-11T14:32:34.908Z,1.10
2018-02-11T14:35:03.182Z,0.90
2018-02-11T14:37:31.459Z,0.80
2018-02-11T14:40:00.498Z,0.70
2018-02-11T14:42:28.764Z,1.00
2018-02-11T14:44:57.054Z,0.80
2018-02-11T14:47:26.081Z,0.60
2018-02-11T14:49:54.347Z,0.60
2018-02-11T14:52:22.621Z,0.70
2018-02-11T14:54:51.656Z,0.70
2018-02-11T14:57:19.920Z,0.50
2018-02-11T14:59:48.984Z,0.60
2018-02-11T15:02:17.238Z,0.50
2018-02-11T15:04:45.503Z,0.50
2018-02-11T15:07:13.775Z,0.60
2018-02-11T15:09:42.812Z,0.60
2018-02-11T15:12:11.092Z,0.50
2018-02-11T15:14:39.356Z,0.60
2018-02-11T15:17:08.391Z,0.60
2018-02-11T15:19:36.651Z,0.60
2018-02-11T15:22:04.919Z,0.60
2018-02-11T15:24:33.175Z,0.50
2018-02-11T15:27:01.462Z,0.50
2018-02-11T15:29:29.723Z,0.50
2018-02-11T15:31:58.773Z,0.50
2018-02-11T15:34:27.050Z,0.80
2018-02-11T15:36:55.309Z,0.50
2018-02-11T15:39:24.346Z,0.50
2018-02-11T15:41:52.637Z,0.80
2018-02-11T15:44:20.894Z,0.60
2018-02-11T15:46:49.163Z,0.50
2018-02-11T15:49:18.198Z,0.50
2018-02-11T15:51:46.472Z,0.50
2018-02-11T15:54:14.738Z,0.50
2018-02-11T15:56:43.045Z,0.50
2018-02-11T15:59:12.068Z,0.40
2018-02-11T16:01:40.354Z,0.50
2018-02-11T16:04:08.621Z,0.50
2018-02-11T16:06:37.672Z,0.40
2018-02-11T16:09:05.935Z,0.50
2018-02-11T16:11:34.221Z,0.40
2018-02-11T16:14:02.487Z,0.40
2018-02-11T16:16:31.538Z,0.30
2018-02-11T16:18:59.804Z,0.30
2018-02-11T16:21:28.089Z,0.40
2018-02-11T16:23:57.122Z,0.40
2018-02-11T16:26:25.396Z,0.50
2018-02-11T16:28:53.664Z,0.30
2018-02-11T16:31:22.713Z,0.50
2018-02-11T16:33:50.971Z,0.40
2018-02-11T16:36:19.249Z,0.40
2018-02-11T16:38:47.520Z,0.40
2018-02-11T16:41:15.808Z,0.40
2018-02-11T16:43:44.071Z,0.40
2018-02-11T16:46:12.357Z,0.40
2018-02-11T16:48:40.669Z,0.40
2018-02-11T16:51:08.901Z,0.40
2018-02-11T16:53:37.173Z,0.40
2018-02-11T16:56:05.446Z,0.40
2018-02-11T16:58:34.485Z,0.40
2018-02-11T17:01:02.768Z,0.30
2018-02-11T17:03:31.029Z,0.40
2018-02-11T17:06:00.076Z,0.40
2018-02-11T17:08:28.345Z,0.50
2018-02-11T17:10:56.637Z,0.30
2018-02-11T17:13:24.944Z,0.40
2018-02-11T17:15:53.217Z,0.40
2018-02-11T17:18:21.484Z,0.40
2018-02-11T17:20:50.532Z,0.40
2018-02-11T17:23:18.805Z,0.40
2018-02-11T17:25:47.087Z,0.70
2018-02-11T17:28:15.348Z,0.50
2018-02-11T17:30:44.387Z,0.40
2018-02-11T17:33:12.661Z,0.20
2018-02-11T17:35:40.935Z,0.60
2018-02-11T17:38:09.967Z,0.30
2018-02-11T17:40:38.243Z,0.30
2018-02-11T17:43:06.512Z,0.40
2018-02-11T17:45:36.255Z,0.30
2018-02-11T17:48:04.535Z,0.30
2018-02-11T17:50:33.576Z,0.30
2018-02-11T17:53:01.880Z,0.30
2018-02-11T17:55:30.152Z,0.40
2018-02-11T17:58:00.173Z,0.40
2018-02-11T18:00:28.454Z,0.40
2018-02-11T18:02:56.731Z,0.40
2018-02-11T18:05:25.776Z,0.40
2018-02-11T18:07:54.051Z,0.50
2018-02-11T18:10:22.333Z,0.60
2018-02-11T18:12:50.624Z,0.40
2018-02-11T18:15:18.891Z,0.40
2018-02-11T18:17:47.192Z,0.40
2018-02-11T18:20:16.410Z,0.30
2018-02-11T18:22:44.689Z,0.40
2018-02-11T18:25:12.967Z,0.30
2018-02-11T18:27:41.274Z,0.40
2018-02-11T18:30:09.547Z,0.30
2018-02-11T18:32:38.602Z,0.40
2018-02-11T18:35:06.877Z,0.30
2018-02-11T18:37:35.162Z,0.40
2018-02-11T18:40:03.436Z,0.40
2018-02-11T18:42:31.718Z,0.30
2018-02-11T18:44:59.978Z,0.30
2018-02-11T18:47:29.012Z,0.30
2018-02-11T18:49:57.284Z,0.20
2018-02-11T18:52:26.326Z,0.60
2018-02-11T18:54:54.604Z,0.40
2018-02-11T18:57:22.875Z,0.30
2018-02-11T18:59:51.161Z,0.30
2018-02-11T19:02:19.436Z,0.30
2018-02-11T19:04:48.469Z,0.30
2018-02-11T19:07:16.799Z,0.20
2018-02-11T19:09:45.051Z,0.30
2018-02-11T19:12:13.328Z,0.20
2018-02-11T19:14:41.598Z,0.30
2018-02-11T19:17:10.672Z,0.30
2018-02-11T19:19:38.924Z,0.20
2018-02-11T19:22:07.196Z,0.30
2018-02-11T19:24:35.473Z,0.30
2018-02-11T19:27:04.512Z,0.30
2018-02-11T19:29:32.791Z,0.20
2018-02-11T19:32:01.059Z,0.40
2018-02-11T19:34:30.135Z,0.30
2018-02-11T19:36:58.386Z,0.30
2018-02-11T19:39:26.656Z,0.30
2018-02-11T19:41:54.918Z,0.20
2018-02-11T19:44:24.641Z,0.30
2018-02-11T19:46:52.912Z,0.30
2018-02-11T19:49:21.184Z,0.50
2018-02-11T19:51:49.443Z,0.30
2018-02-11T19:54:18.485Z,0.30
2018-02-11T19:56:46.770Z,0.20
2018-02-11T19:59:15.041Z,0.30
2018-02-11T20:01:43.307Z,0.30
2018-02-11T20:04:11.596Z,0.20
2018-02-11T20:06:39.855Z,0.20
2018-02-11T20:09:08.891Z,0.40
2018-02-11T20:11:37.170Z,0.30
2018-02-11T20:14:05.453Z,0.20
2018-02-11T20:16:34.482Z,0.20
2018-02-11T20:19:02.760Z,0.40
2018-02-11T20:21:31.024Z,0.10
2018-02-11T20:24:00.059Z,0.30
2018-02-11T20:26:28.325Z,0.30
2018-02-11T20:28:57.367Z,0.20
2018-02-11T20:31:25.630Z,0.40
2018-02-11T20:33:53.925Z,0.10
2018-02-11T20:36:22.207Z,0.20
2018-02-11T20:38:50.474Z,0.20
2018-02-11T20:41:19.832Z,0.30
2018-02-11T20:43:48.108Z,0.20
2018-02-11T20:46:16.389Z,0.20
2018-02-11T20:48:44.664Z,0.40
2018-02-11T20:51:13.702Z,0.10
2018-02-11T20:53:41.968Z,0.30
2018-02-11T20:56:10.257Z,0.10
2018-02-11T20:58:38.529Z,0.00
2018-02-11T21:01:07.598Z,0.10
2018-02-11T21:03:35.852Z,0.40
2018-02-11T21:06:04.123Z,0.00
2018-02-11T21:08:32.396Z,0.20
2018-02-11T21:11:01.440Z,0.10
2018-02-11T21:13:29.712Z,0.10
2018-02-11T21:15:57.995Z,0.10
2018-02-11T21:18:26.264Z,0.40
2018-02-11T21:20:55.311Z,-0.10
2018-02-11T21:23:23.579Z,0.40
2018-02-11T21:25:52.619Z,0.00
2018-02-11T21:28:20.888Z,0.00
2018-02-11T21:30:49.174Z,0.10
2018-02-11T21:33:17.449Z,0.30
2018-02-11T21:35:45.722Z,0.00
2018-02-11T21:38:14.757Z,0.00
2018-02-11T21:40:43.040Z,0.00
2018-02-11T21:43:11.328Z,0.00
2018-02-11T21:45:39.614Z,0.00
2018-02-11T21:48:07.919Z,-0.10
2018-02-11T21:50:36.190Z,0.00
2018-02-11T21:53:04.455Z,0.10
2018-02-11T21:55:32.729Z,0.00
2018-02-11T21:58:00.996Z,0.00
2018-02-11T22:00:29.279Z,0.00
2018-02-11T22:02:57.557Z,0.00
2018-02-11T22:05:25.833Z,0.00
2018-02-11T22:07:54.106Z,0.10
2018-02-11T22:10:23.152Z,-0.10
2018-02-11T22:12:51.426Z,0.10
2018-02-11T22:15:19.701Z,-0.10
2018-02-11T22:17:47.973Z,0.10
2018-02-11T22:20:16.999Z,-0.20
2018-02-11T22:22:45.289Z,-0.40
2018-02-11T22:25:13.560Z,0.00
2018-02-11T22:27:41.852Z,-0.20
2018-02-11T22:30:10.119Z,-0.20
2018-02-11T22:32:39.167Z,0.10
2018-02-11T22:35:07.449Z,0.20
2018-02-11T22:37:35.825Z,-0.20
2018-02-11T22:40:04.091Z,-0.20
2018-02-11T22:42:33.137Z,-0.20
2018-02-11T22:45:01.417Z,-0.10
2018-02-11T22:47:29.713Z,-0.20
2018-02-11T22:49:57.986Z,0.00
2018-02-11T22:52:26.269Z,0.00
2018-02-11T22:54:55.298Z,0.10
2018-02-11T22:57:23.589Z,0.20
2018-02-11T23:02:20.900Z,-0.20
2018-02-11T23:04:49.980Z,-0.10
2018-02-11T23:07:18.259Z,-0.20
2018-02-11T23:09:46.539Z,-0.20
2018-02-11T23:12:15.591Z,-0.30
2018-02-11T23:14:43.865Z,0.00
2018-02-11T23:17:12.139Z,-0.20
2018-02-11T23:19:51.248Z,0.00
2018-02-11T23:22:19.532Z,-0.30
2018-02-11T23:24:47.802Z,-0.20
2018-02-11T23:27:16.092Z,-0.30
2018-02-11T23:29:44.374Z,-0.20
2018-02-11T23:32:12.655Z,0.10
2018-02-11T23:34:40.939Z,0.10
2018-02-11T23:37:09.213Z,-0.30
2018-02-11T23:39:37.493Z,-0.30
2018-02-11T23:42:05.759Z,-0.30
2018-02-11T23:44:34.803Z,-0.30
2018-02-11T23:47:03.073Z,-0.10
2018-02-11T23:49:31.354Z,-0.30
2018-02-11T23:51:59.647Z,-0.30
2018-02-11T23:54:27.941Z,-0.40
2018-02-11T23:56:56.215Z,-0.30
2018-02-11T23:59:25.252Z,-0.40
